sensor_id;sensor_type;location;lat;lon;timestamp;pressure;altitude;pressure_sealevel;temperature;humidity
68793;BME280;55778;54.346;10.210;2023-11-21T00:00:53;100799.69;;;7.29;100.00
68793;BME280;55778;54.346;10.210;2023-11-21T00:03:18;100795.88;;;7.20;100.00
68793;BME280;55778;54.346;10.210;2023-11-21T00:05:44;100801.66;;;7.16;100.00
68793;BME280;55778;54.346;10.210;2023-11-21T00:08:09;100798.47;;;7.22;100.00
68793;BME280;55778;54.346;10.210;2023-11-21T00:10:36;100791.56;;;7.40;100.00
68793;BME280;55778;54.346;10.210;2023-11-21T00:13:03;100800.31;;;7.32;100.00
68793;BME280;55778;54.346;10.210;2023-11-21T00:15:29;100794.16;;;7.19;100.00
68793;BME280;55778;54.346;10.210;2023-11-21T00:17:54;100798.97;;;7.16;100.00
68793;BME280;55778;54.346;10.210;2023-11-21T00:20:20;100801.28;;;7.09;100.00
68793;BME280;55778;54.346;10.210;2023-11-21T00:22:46;100805.13;;;7.18;100.00
68793;BME280;55778;54.346;10.210;2023-11-21T00:25:12;100804.88;;;7.21;100.00
68793;BME280;55778;54.346;10.210;2023-11-21T00:27:39;100807.19;;;7.36;100.00
68793;BME280;55778;54.346;10.210;2023-11-21T00:30:05;100815.97;;;7.40;100.00
68793;BME280;55778;54.346;10.210;2023-11-21T00:32:31;100818.53;;;7.41;100.00
68793;BME280;55778;54.346;10.210;2023-11-21T00:34:56;100815.00;;;7.30;100.00
68793;BME280;55778;54.346;10.210;2023-11-21T00:37:22;100820.53;;;7.28;100.00
68793;BME280;55778;54.346;10.210;2023-11-21T00:39:49;100822.34;;;7.17;100.00
68793;BME280;55778;54.346;10.210;2023-11-21T00:42:14;100827.19;;;7.13;100.00
68793;BME280;55778;54.346;10.210;2023-11-21T00:44:39;100822.97;;;7.20;100.00
68793;BME280;55778;54.346;10.210;2023-11-21T00:47:05;100824.59;;;7.12;100.00
68793;BME280;55778;54.346;10.210;2023-11-21T00:49:30;100825.91;;;7.06;100.00
68793;BME280;55778;54.346;10.210;2023-11-21T00:51:56;100833.69;;;7.22;100.00
68793;BME280;55778;54.346;10.210;2023-11-21T00:54:23;100830.72;;;7.14;100.00
68793;BME280;55778;54.346;10.210;2023-11-21T00:56:48;100838.97;;;7.01;100.00
68793;BME280;55778;54.346;10.210;2023-11-21T00:59:14;100842.78;;;6.88;100.00
68793;BME280;55778;54.346;10.210;2023-11-21T01:01:39;100848.72;;;7.15;100.00
68793;BME280;55778;54.346;10.210;2023-11-21T01:04:04;100854.41;;;7.12;100.00
68793;BME280;55778;54.346;10.210;2023-11-21T01:06:32;100857.91;;;6.90;100.00
68793;BME280;55778;54.346;10.210;2023-11-21T01:08:57;100863.56;;;6.87;100.00
68793;BME280;55778;54.346;10.210;2023-11-21T01:11:22;100860.19;;;7.07;100.00
68793;BME280;55778;54.346;10.210;2023-11-21T01:13:48;100876.16;;;6.99;100.00
68793;BME280;55778;54.346;10.210;2023-11-21T01:16:13;100879.72;;;6.89;100.00
68793;BME280;55778;54.346;10.210;2023-11-21T01:18:38;100880.66;;;6.77;100.00
68793;BME280;55778;54.346;10.210;2023-11-21T01:21:04;100891.84;;;6.72;100.00
68793;BME280;55778;54.346;10.210;2023-11-21T01:23:29;100900.97;;;6.71;100.00
68793;BME280;55778;54.346;10.210;2023-11-21T01:25:56;100895.19;;;6.76;100.00
68793;BME280;55778;54.346;10.210;2023-11-21T01:28:22;100901.72;;;6.73;100.00
68793;BME280;55778;54.346;10.210;2023-11-21T01:30:48;100904.03;;;6.67;100.00
68793;BME280;55778;54.346;10.210;2023-11-21T01:33:13;100901.72;;;6.73;100.00
68793;BME280;55778;54.346;10.210;2023-11-21T01:35:43;100902.72;;;6.83;100.00
68793;BME280;55778;54.346;10.210;2023-11-21T01:38:12;100919.69;;;6.74;100.00
68793;BME280;55778;54.346;10.210;2023-11-21T01:40:37;100918.69;;;6.75;100.00
68793;BME280;55778;54.346;10.210;2023-11-21T01:43:03;100915.91;;;6.88;100.00
68793;BME280;55778;54.346;10.210;2023-11-21T01:45:28;100915.16;;;6.86;100.00
68793;BME280;55778;54.346;10.210;2023-11-21T01:47:56;100920.19;;;6.79;100.00
68793;BME280;55778;54.346;10.210;2023-11-21T01:50:21;100921.41;;;6.75;100.00
68793;BME280;55778;54.346;10.210;2023-11-21T01:52:48;100923.03;;;6.78;100.00
68793;BME280;55778;54.346;10.210;2023-11-21T01:55:16;100922.16;;;6.77;100.00
68793;BME280;55778;54.346;10.210;2023-11-21T01:57:45;100932.09;;;6.77;100.00
68793;BME280;55778;54.346;10.210;2023-11-21T02:00:12;100929.41;;;6.77;100.00
68793;BME280;55778;54.346;10.210;2023-11-21T02:02:46;100935.81;;;6.76;100.00
68793;BME280;55778;54.346;10.210;2023-11-21T02:05:14;100940.63;;;6.83;100.00
68793;BME280;55778;54.346;10.210;2023-11-21T02:07:42;100942.34;;;6.84;100.00
68793;BME280;55778;54.346;10.210;2023-11-21T02:10:10;100942.56;;;6.70;100.00
68793;BME280;55778;54.346;10.210;2023-11-21T02:12:56;100950.84;;;6.80;100.00
68793;BME280;55778;54.346;10.210;2023-11-21T02:15:23;100956.94;;;6.71;100.00
68793;BME280;55778;54.346;10.210;2023-11-21T02:17:52;100950.25;;;6.87;100.00
68793;BME280;55778;54.346;10.210;2023-11-21T02:20:22;100961.50;;;6.94;100.00
68793;BME280;55778;54.346;10.210;2023-11-21T02:22:50;100961.72;;;6.91;100.00
68793;BME280;55778;54.346;10.210;2023-11-21T02:25:18;100960.94;;;6.78;100.00
68793;BME280;55778;54.346;10.210;2023-11-21T02:27:43;100964.72;;;6.75;100.00
68793;BME280;55778;54.346;10.210;2023-11-21T02:30:13;100968.31;;;6.76;100.00
68793;BME280;55778;54.346;10.210;2023-11-21T02:32:39;100965.84;;;6.73;100.00
68793;BME280;55778;54.346;10.210;2023-11-21T02:35:05;100970.16;;;6.75;100.00
68793;BME280;55778;54.346;10.210;2023-11-21T02:37:33;100970.59;;;6.69;100.00
68793;BME280;55778;54.346;10.210;2023-11-21T02:39:58;100978.91;;;6.79;100.00
68793;BME280;55778;54.346;10.210;2023-11-21T02:42:24;100977.66;;;6.72;100.00
68793;BME280;55778;54.346;10.210;2023-11-21T02:44:50;100976.31;;;6.77;100.00
68793;BME280;55778;54.346;10.210;2023-11-21T02:47:15;100980.13;;;6.75;100.00
68793;BME280;55778;54.346;10.210;2023-11-21T02:49:41;100978.97;;;6.90;100.00
68793;BME280;55778;54.346;10.210;2023-11-21T02:52:06;100982.72;;;6.76;100.00
68793;BME280;55778;54.346;10.210;2023-11-21T02:54:31;100981.78;;;6.65;100.00
68793;BME280;55778;54.346;10.210;2023-11-21T02:57:01;100983.06;;;6.72;100.00
68793;BME280;55778;54.346;10.210;2023-11-21T02:59:27;100992.28;;;6.69;100.00
68793;BME280;55778;54.346;10.210;2023-11-21T03:01:52;100995.63;;;6.73;100.00
68793;BME280;55778;54.346;10.210;2023-11-21T03:04:18;100992.69;;;6.76;100.00
68793;BME280;55778;54.346;10.210;2023-11-21T03:06:45;100991.41;;;6.92;100.00
68793;BME280;55778;54.346;10.210;2023-11-21T03:09:11;101000.56;;;6.79;100.00
68793;BME280;55778;54.346;10.210;2023-11-21T03:11:39;101007.88;;;6.89;100.00
68793;BME280;55778;54.346;10.210;2023-11-21T03:14:05;101001.00;;;6.85;100.00
68793;BME280;55778;54.346;10.210;2023-11-21T03:16:32;101002.19;;;6.81;100.00
68793;BME280;55778;54.346;10.210;2023-11-21T03:18:57;101015.50;;;6.84;100.00
68793;BME280;55778;54.346;10.210;2023-11-21T03:21:22;101020.28;;;6.81;100.00
68793;BME280;55778;54.346;10.210;2023-11-21T03:23:48;101023.50;;;6.86;100.00
68793;BME280;55778;54.346;10.210;2023-11-21T03:26:13;101021.03;;;6.83;100.00
68793;BME280;55778;54.346;10.210;2023-11-21T03:28:39;101024.25;;;6.64;100.00
68793;BME280;55778;54.346;10.210;2023-11-21T03:31:05;101018.63;;;6.91;100.00
68793;BME280;55778;54.346;10.210;2023-11-21T03:33:32;101025.03;;;6.90;100.00
68793;BME280;55778;54.346;10.210;2023-11-21T03:35:57;101025.59;;;6.82;100.00
68793;BME280;55778;54.346;10.210;2023-11-21T03:38:23;101026.66;;;6.80;100.00
68793;BME280;55778;54.346;10.210;2023-11-21T03:40:48;101036.44;;;6.82;100.00
68793;BME280;55778;54.346;10.210;2023-11-21T03:43:15;101037.00;;;6.75;100.00
68793;BME280;55778;54.346;10.210;2023-11-21T03:45:41;101040.50;;;6.88;100.00
68793;BME280;55778;54.346;10.210;2023-11-21T03:48:07;101040.22;;;6.80;100.00
68793;BME280;55778;54.346;10.210;2023-11-21T03:50:32;101041.19;;;6.79;100.00
68793;BME280;55778;54.346;10.210;2023-11-21T03:52:57;101049.22;;;6.80;100.00
68793;BME280;55778;54.346;10.210;2023-11-21T03:55:23;101043.38;;;6.74;100.00
68793;BME280;55778;54.346;10.210;2023-11-21T03:57:50;101053.47;;;6.72;100.00
68793;BME280;55778;54.346;10.210;2023-11-21T04:00:16;101052.50;;;6.73;100.00
68793;BME280;55778;54.346;10.210;2023-11-21T04:02:42;101049.25;;;6.68;100.00
68793;BME280;55778;54.346;10.210;2023-11-21T04:05:07;101054.50;;;6.82;100.00
68793;BME280;55778;54.346;10.210;2023-11-21T04:07:34;101057.78;;;6.74;100.00
68793;BME280;55778;54.346;10.210;2023-11-21T04:10:00;101059.16;;;6.80;100.00
68793;BME280;55778;54.346;10.210;2023-11-21T04:12:25;101070.91;;;6.68;100.00
68793;BME280;55778;54.346;10.210;2023-11-21T04:14:50;101068.50;;;6.76;100.00
68793;BME280;55778;54.346;10.210;2023-11-21T04:17:18;101077.28;;;6.79;100.00
68793;BME280;55778;54.346;10.210;2023-11-21T04:19:44;101072.44;;;6.72;100.00
68793;BME280;55778;54.346;10.210;2023-11-21T04:22:09;101077.22;;;6.68;100.00
68793;BME280;55778;54.346;10.210;2023-11-21T04:24:35;101073.94;;;6.76;100.00
68793;BME280;55778;54.346;10.210;2023-11-21T04:27:00;101080.56;;;6.72;100.00
68793;BME280;55778;54.346;10.210;2023-11-21T04:29:25;101081.41;;;6.72;100.00
68793;BME280;55778;54.346;10.210;2023-11-21T04:31:52;101085.09;;;6.71;100.00
68793;BME280;55778;54.346;10.210;2023-11-21T04:34:17;101076.44;;;6.66;100.00
68793;BME280;55778;54.346;10.210;2023-11-21T04:36:42;101081.81;;;6.79;100.00
68793;BME280;55778;54.346;10.210;2023-11-21T04:39:08;101095.50;;;6.65;100.00
68793;BME280;55778;54.346;10.210;2023-11-21T04:41:34;101087.34;;;6.77;100.00
68793;BME280;55778;54.346;10.210;2023-11-21T04:43:59;101086.59;;;6.75;100.00
68793;BME280;55778;54.346;10.210;2023-11-21T04:46:27;101089.09;;;7.02;100.00
68793;BME280;55778;54.346;10.210;2023-11-21T04:48:52;101096.94;;;6.94;100.00
68793;BME280;55778;54.346;10.210;2023-11-21T04:51:18;101103.03;;;6.85;100.00
68793;BME280;55778;54.346;10.210;2023-11-21T04:53:43;101107.66;;;6.72;100.00
68793;BME280;55778;54.346;10.210;2023-11-21T04:56:09;101113.72;;;6.63;100.00
68793;BME280;55778;54.346;10.210;2023-11-21T04:58:34;101106.00;;;6.69;100.00
68793;BME280;55778;54.346;10.210;2023-11-21T05:01:00;101113.06;;;6.72;100.00
68793;BME280;55778;54.346;10.210;2023-11-21T05:03:26;101114.78;;;6.73;100.00
68793;BME280;55778;54.346;10.210;2023-11-21T05:05:51;101114.06;;;6.58;100.00
68793;BME280;55778;54.346;10.210;2023-11-21T05:08:16;101115.06;;;6.57;100.00
68793;BME280;55778;54.346;10.210;2023-11-21T05:10:42;101125.78;;;6.59;100.00
68793;BME280;55778;54.346;10.210;2023-11-21T05:13:07;101131.75;;;6.51;100.00
68793;BME280;55778;54.346;10.210;2023-11-21T05:15:36;101135.84;;;6.57;100.00
68793;BME280;55778;54.346;10.210;2023-11-21T05:18:02;101135.50;;;6.49;100.00
68793;BME280;55778;54.346;10.210;2023-11-21T05:20:28;101146.78;;;6.55;100.00
68793;BME280;55778;54.346;10.210;2023-11-21T05:22:53;101152.75;;;6.48;100.00
68793;BME280;55778;54.346;10.210;2023-11-21T05:25:18;101156.00;;;6.40;100.00
68793;BME280;55778;54.346;10.210;2023-11-21T05:27:45;101159.25;;;6.45;100.00
68793;BME280;55778;54.346;10.210;2023-11-21T05:30:11;101170.50;;;6.52;100.00
68793;BME280;55778;54.346;10.210;2023-11-21T05:32:38;101174.16;;;6.63;100.00
68793;BME280;55778;54.346;10.210;2023-11-21T05:35:04;101169.72;;;6.62;100.00
68793;BME280;55778;54.346;10.210;2023-11-21T05:37:37;101170.81;;;6.47;100.00
68793;BME280;55778;54.346;10.210;2023-11-21T05:40:05;101180.03;;;6.57;100.00
68793;BME280;55778;54.346;10.210;2023-11-21T05:42:34;101180.44;;;6.64;100.00
68793;BME280;55778;54.346;10.210;2023-11-21T05:45:00;101191.59;;;6.59;100.00
68793;BME280;55778;54.346;10.210;2023-11-21T05:47:40;101186.06;;;6.61;100.00
68793;BME280;55778;54.346;10.210;2023-11-21T05:50:06;101198.72;;;6.60;100.00
68793;BME280;55778;54.346;10.210;2023-11-21T05:52:38;101192.25;;;6.63;100.00
68793;BME280;55778;54.346;10.210;2023-11-21T05:55:07;101193.91;;;6.53;100.00
68793;BME280;55778;54.346;10.210;2023-11-21T05:57:37;101201.00;;;6.66;100.00
68793;BME280;55778;54.346;10.210;2023-11-21T06:00:07;101211.00;;;6.66;100.00
68793;BME280;55778;54.346;10.210;2023-11-21T06:02:40;101213.81;;;6.52;100.00
68793;BME280;55778;54.346;10.210;2023-11-21T06:05:06;101215.34;;;6.56;100.00
68793;BME280;55778;54.346;10.210;2023-11-21T06:07:32;101225.69;;;6.62;100.00
68793;BME280;55778;54.346;10.210;2023-11-21T06:09:57;101226.72;;;6.48;100.00
68793;BME280;55778;54.346;10.210;2023-11-21T06:12:23;101227.25;;;6.41;100.00
68793;BME280;55778;54.346;10.210;2023-11-21T06:14:48;101234.94;;;6.34;100.00
68793;BME280;55778;54.346;10.210;2023-11-21T06:17:13;101242.41;;;6.43;100.00
68793;BME280;55778;54.346;10.210;2023-11-21T06:19:39;101253.13;;;6.45;100.00
68793;BME280;55778;54.346;10.210;2023-11-21T06:22:05;101248.03;;;6.40;100.00
68793;BME280;55778;54.346;10.210;2023-11-21T06:24:31;101250.63;;;6.42;100.00
68793;BME280;55778;54.346;10.210;2023-11-21T06:26:56;101262.56;;;6.39;100.00
68793;BME280;55778;54.346;10.210;2023-11-21T06:29:22;101261.88;;;6.36;100.00
68793;BME280;55778;54.346;10.210;2023-11-21T06:31:47;101260.16;;;6.35;100.00
68793;BME280;55778;54.346;10.210;2023-11-21T06:34:12;101264.03;;;6.31;100.00
68793;BME280;55778;54.346;10.210;2023-11-21T06:36:39;101271.84;;;6.35;100.00
68793;BME280;55778;54.346;10.210;2023-11-21T06:39:04;101275.06;;;6.28;100.00
68793;BME280;55778;54.346;10.210;2023-11-21T06:41:34;101287.75;;;6.27;100.00
68793;BME280;55778;54.346;10.210;2023-11-21T06:44:00;101292.75;;;6.33;100.00
68793;BME280;55778;54.346;10.210;2023-11-21T06:46:25;101300.41;;;6.27;100.00
68793;BME280;55778;54.346;10.210;2023-11-21T06:48:50;101308.31;;;6.30;100.00
68793;BME280;55778;54.346;10.210;2023-11-21T06:51:16;101313.53;;;6.33;100.00
68793;BME280;55778;54.346;10.210;2023-11-21T06:53:41;101310.03;;;6.31;100.00
68793;BME280;55778;54.346;10.210;2023-11-21T06:56:17;101323.16;;;6.37;100.00
68793;BME280;55778;54.346;10.210;2023-11-21T06:58:43;101324.75;;;6.27;100.00
68793;BME280;55778;54.346;10.210;2023-11-21T07:01:10;101334.19;;;6.34;100.00
68793;BME280;55778;54.346;10.210;2023-11-21T07:03:36;101332.16;;;6.37;100.00
68793;BME280;55778;54.346;10.210;2023-11-21T07:06:03;101329.88;;;6.31;100.00
68793;BME280;55778;54.346;10.210;2023-11-21T07:08:28;101338.53;;;6.36;100.00
68793;BME280;55778;54.346;10.210;2023-11-21T07:10:53;101342.84;;;6.26;100.00
68793;BME280;55778;54.346;10.210;2023-11-21T07:13:19;101348.03;;;6.29;100.00
68793;BME280;55778;54.346;10.210;2023-11-21T07:15:44;101348.28;;;6.39;100.00
68793;BME280;55778;54.346;10.210;2023-11-21T07:18:09;101355.09;;;6.32;100.00
68793;BME280;55778;54.346;10.210;2023-11-21T07:20:35;101355.09;;;6.44;100.00
68793;BME280;55778;54.346;10.210;2023-11-21T07:23:00;101366.19;;;6.54;100.00
68793;BME280;55778;54.346;10.210;2023-11-21T07:25:26;101363.69;;;6.51;100.00
68793;BME280;55778;54.346;10.210;2023-11-21T07:27:51;101364.56;;;6.51;100.00
68793;BME280;55778;54.346;10.210;2023-11-21T07:30:18;101366.03;;;6.43;100.00
68793;BME280;55778;54.346;10.210;2023-11-21T07:32:43;101371.50;;;6.55;100.00
68793;BME280;55778;54.346;10.210;2023-11-21T07:35:11;101371.50;;;6.68;100.00
68793;BME280;55778;54.346;10.210;2023-11-21T07:37:37;101366.97;;;6.56;100.00
68793;BME280;55778;54.346;10.210;2023-11-21T07:40:02;101376.03;;;6.55;100.00
68793;BME280;55778;54.346;10.210;2023-11-21T07:42:28;101375.41;;;6.51;100.00
68793;BME280;55778;54.346;10.210;2023-11-21T07:44:53;101377.53;;;6.46;100.00
68793;BME280;55778;54.346;10.210;2023-11-21T07:47:19;101376.13;;;6.53;100.00
68793;BME280;55778;54.346;10.210;2023-11-21T07:49:44;101381.03;;;6.61;100.00
68793;BME280;55778;54.346;10.210;2023-11-21T07:52:10;101374.31;;;6.66;100.00
68793;BME280;55778;54.346;10.210;2023-11-21T07:54:36;101378.16;;;6.76;100.00
68793;BME280;55778;54.346;10.210;2023-11-21T07:57:01;101383.22;;;6.68;100.00
68793;BME280;55778;54.346;10.210;2023-11-21T07:59:29;101392.94;;;6.71;100.00
68793;BME280;55778;54.346;10.210;2023-11-21T08:01:55;101384.63;;;6.74;100.00
68793;BME280;55778;54.346;10.210;2023-11-21T08:04:20;101387.22;;;6.75;100.00
68793;BME280;55778;54.346;10.210;2023-11-21T08:06:45;101386.16;;;6.78;100.00
68793;BME280;55778;54.346;10.210;2023-11-21T08:09:11;101397.00;;;6.78;100.00
68793;BME280;55778;54.346;10.210;2023-11-21T08:11:37;101399.06;;;6.87;100.00
68793;BME280;55778;54.346;10.210;2023-11-21T08:14:04;101406.59;;;6.69;100.00
68793;BME280;55778;54.346;10.210;2023-11-21T08:16:30;101405.44;;;6.86;100.00
68793;BME280;55778;54.346;10.210;2023-11-21T08:18:55;101413.88;;;6.81;100.00
68793;BME280;55778;54.346;10.210;2023-11-21T08:21:21;101416.50;;;7.08;100.00
68793;BME280;55778;54.346;10.210;2023-11-21T08:23:49;101428.53;;;7.04;100.00
68793;BME280;55778;54.346;10.210;2023-11-21T08:26:18;101438.28;;;7.06;100.00
68793;BME280;55778;54.346;10.210;2023-11-21T08:28:44;101439.69;;;6.99;100.00
68793;BME280;55778;54.346;10.210;2023-11-21T08:31:09;101433.81;;;6.80;100.00
68793;BME280;55778;54.346;10.210;2023-11-21T08:33:35;101444.41;;;6.71;100.00
68793;BME280;55778;54.346;10.210;2023-11-21T08:36:00;101447.16;;;6.83;100.00
68793;BME280;55778;54.346;10.210;2023-11-21T08:38:26;101449.09;;;6.81;100.00
68793;BME280;55778;54.346;10.210;2023-11-21T08:40:53;101442.53;;;6.85;100.00
68793;BME280;55778;54.346;10.210;2023-11-21T08:43:19;101451.09;;;7.04;100.00
68793;BME280;55778;54.346;10.210;2023-11-21T08:45:45;101454.97;;;7.00;100.00
68793;BME280;55778;54.346;10.210;2023-11-21T08:48:10;101451.41;;;7.00;100.00
68793;BME280;55778;54.346;10.210;2023-11-21T08:50:37;101462.69;;;7.06;100.00
68793;BME280;55778;54.346;10.210;2023-11-21T08:53:02;101469.59;;;6.85;100.00
68793;BME280;55778;54.346;10.210;2023-11-21T08:55:27;101471.53;;;6.83;100.00
68793;BME280;55778;54.346;10.210;2023-11-21T08:57:53;101476.41;;;6.78;100.00
68793;BME280;55778;54.346;10.210;2023-11-21T09:00:19;101479.56;;;6.85;100.00
68793;BME280;55778;54.346;10.210;2023-11-21T09:02:45;101481.78;;;6.66;100.00
68793;BME280;55778;54.346;10.210;2023-11-21T09:05:11;101478.66;;;6.72;100.00
68793;BME280;55778;54.346;10.210;2023-11-21T09:07:38;101479.63;;;6.71;100.00
68793;BME280;55778;54.346;10.210;2023-11-21T09:10:04;101477.38;;;6.77;100.00
68793;BME280;55778;54.346;10.210;2023-11-21T09:12:33;101492.34;;;6.83;100.00
68793;BME280;55778;54.346;10.210;2023-11-21T09:15:09;101493.69;;;6.90;100.00
68793;BME280;55778;54.346;10.210;2023-11-21T09:17:36;101493.78;;;7.01;100.00
68793;BME280;55778;54.346;10.210;2023-11-21T09:20:02;101501.38;;;6.96;100.00
68793;BME280;55778;54.346;10.210;2023-11-21T09:22:30;101507.31;;;6.88;100.00
68793;BME280;55778;54.346;10.210;2023-11-21T09:24:57;101507.22;;;6.90;100.00
68793;BME280;55778;54.346;10.210;2023-11-21T09:27:23;101510.72;;;7.04;100.00
68793;BME280;55778;54.346;10.210;2023-11-21T09:29:49;101508.22;;;7.14;100.00
68793;BME280;55778;54.346;10.210;2023-11-21T09:32:14;101515.72;;;7.10;100.00
68793;BME280;55778;54.346;10.210;2023-11-21T09:34:41;101514.53;;;7.14;100.00
68793;BME280;55778;54.346;10.210;2023-11-21T09:37:07;101518.44;;;7.23;100.00
68793;BME280;55778;54.346;10.210;2023-11-21T09:39:33;101531.34;;;7.32;100.00
68793;BME280;55778;54.346;10.210;2023-11-21T09:42:11;101527.91;;;7.30;100.00
68793;BME280;55778;54.346;10.210;2023-11-21T09:44:48;101531.56;;;7.29;100.00
68793;BME280;55778;54.346;10.210;2023-11-21T09:47:17;101540.88;;;7.37;100.00
68793;BME280;55778;54.346;10.210;2023-11-21T09:49:47;101541.34;;;7.44;100.00
68793;BME280;55778;54.346;10.210;2023-11-21T09:52:20;101548.72;;;7.54;100.00
68793;BME280;55778;54.346;10.210;2023-11-21T09:54:48;101557.63;;;7.44;100.00
68793;BME280;55778;54.346;10.210;2023-11-21T09:57:14;101545.56;;;7.48;100.00
68793;BME280;55778;54.346;10.210;2023-11-21T09:59:40;101550.66;;;7.27;100.00
68793;BME280;55778;54.346;10.210;2023-11-21T10:02:07;101546.47;;;7.61;100.00
68793;BME280;55778;54.346;10.210;2023-11-21T10:04:37;101551.44;;;7.54;100.00
68793;BME280;55778;54.346;10.210;2023-11-21T10:07:03;101557.63;;;7.44;100.00
68793;BME280;55778;54.346;10.210;2023-11-21T10:09:29;101567.06;;;7.38;100.00
68793;BME280;55778;54.346;10.210;2023-11-21T10:11:55;101566.06;;;7.27;100.00
68793;BME280;55778;54.346;10.210;2023-11-21T10:14:24;101570.09;;;7.34;100.00
68793;BME280;55778;54.346;10.210;2023-11-21T10:16:50;101571.50;;;7.39;100.00
68793;BME280;55778;54.346;10.210;2023-11-21T10:19:17;101588.81;;;7.24;100.00
68793;BME280;55778;54.346;10.210;2023-11-21T10:21:43;101589.94;;;7.08;100.00
68793;BME280;55778;54.346;10.210;2023-11-21T10:24:09;101589.13;;;7.20;100.00
68793;BME280;55778;54.346;10.210;2023-11-21T10:26:35;101587.97;;;7.24;100.00
68793;BME280;55778;54.346;10.210;2023-11-21T10:29:02;101589.91;;;7.22;100.00
68793;BME280;55778;54.346;10.210;2023-11-21T10:31:31;101593.38;;;7.24;100.00
68793;BME280;55778;54.346;10.210;2023-11-21T10:34:13;101598.38;;;7.03;100.00
68793;BME280;55778;54.346;10.210;2023-11-21T10:36:39;101606.41;;;6.78;100.00
68793;BME280;55778;54.346;10.210;2023-11-21T10:39:04;101607.28;;;6.79;100.00
68793;BME280;55778;54.346;10.210;2023-11-21T10:41:30;101614.78;;;6.61;100.00
68793;BME280;55778;54.346;10.210;2023-11-21T10:43:55;101614.00;;;6.73;100.00
68793;BME280;55778;54.346;10.210;2023-11-21T10:46:21;101616.13;;;6.68;100.00
68793;BME280;55778;54.346;10.210;2023-11-21T10:48:52;101616.47;;;6.50;100.00
68793;BME280;55778;54.346;10.210;2023-11-21T10:51:20;101623.50;;;6.38;100.00
68793;BME280;55778;54.346;10.210;2023-11-21T10:53:46;101611.44;;;6.30;100.00
68793;BME280;55778;54.346;10.210;2023-11-21T10:56:14;101619.19;;;6.22;100.00
68793;BME280;55778;54.346;10.210;2023-11-21T10:58:45;101627.50;;;6.04;100.00
68793;BME280;55778;54.346;10.210;2023-11-21T11:01:11;101627.97;;;5.97;100.00
68793;BME280;55778;54.346;10.210;2023-11-21T11:03:39;101621.41;;;5.87;100.00
68793;BME280;55778;54.346;10.210;2023-11-21T11:06:05;101630.78;;;5.81;100.00
68793;BME280;55778;54.346;10.210;2023-11-21T11:08:37;101635.22;;;5.82;100.00
68793;BME280;55778;54.346;10.210;2023-11-21T11:11:04;101642.75;;;5.91;100.00
68793;BME280;55778;54.346;10.210;2023-11-21T11:13:30;101647.09;;;5.94;100.00
68793;BME280;55778;54.346;10.210;2023-11-21T11:16:00;101640.81;;;5.93;100.00
68793;BME280;55778;54.346;10.210;2023-11-21T11:18:32;101648.06;;;5.93;100.00
68793;BME280;55778;54.346;10.210;2023-11-21T11:21:31;101647.09;;;5.94;100.00
68793;BME280;55778;54.346;10.210;2023-11-21T11:26:49;101648.56;;;6.13;100.00
68793;BME280;55778;54.346;10.210;2023-11-21T11:32:15;101653.00;;;6.14;100.00
68793;BME280;55778;54.346;10.210;2023-11-21T11:34:55;101651.75;;;6.06;100.00
68793;BME280;55778;54.346;10.210;2023-11-21T11:37:23;101646.56;;;6.17;100.00
68793;BME280;55778;54.346;10.210;2023-11-21T11:39:49;101665.88;;;6.25;100.00
68793;BME280;55778;54.346;10.210;2023-11-21T11:42:17;101657.19;;;6.20;100.00
68793;BME280;55778;54.346;10.210;2023-11-21T11:47:15;101657.94;;;6.08;100.00
68793;BME280;55778;54.346;10.210;2023-11-21T11:52:45;101662.97;;;6.14;100.00
68793;BME280;55778;54.346;10.210;2023-11-21T11:55:13;101669.34;;;6.13;100.00
68793;BME280;55778;54.346;10.210;2023-11-21T11:57:40;101655.06;;;6.11;100.00
68793;BME280;55778;54.346;10.210;2023-11-21T12:00:20;101668.09;;;6.19;100.00
68793;BME280;55778;54.346;10.210;2023-11-21T12:02:57;101663.34;;;6.22;100.00
68793;BME280;55778;54.346;10.210;2023-11-21T12:05:24;101673.22;;;6.23;100.00
68793;BME280;55778;54.346;10.210;2023-11-21T12:07:56;101681.91;;;6.28;100.00
68793;BME280;55778;54.346;10.210;2023-11-21T12:10:27;101691.88;;;6.42;100.00
68793;BME280;55778;54.346;10.210;2023-11-21T12:12:58;101686.84;;;6.22;100.00
68793;BME280;55778;54.346;10.210;2023-11-21T12:15:27;101682.47;;;6.19;100.00
68793;BME280;55778;54.346;10.210;2023-11-21T12:17:57;101690.41;;;6.22;100.00
68793;BME280;55778;54.346;10.210;2023-11-21T12:20:24;101696.72;;;6.23;100.00
68793;BME280;55778;54.346;10.210;2023-11-21T12:22:54;101700.56;;;6.19;100.00
68793;BME280;55778;54.346;10.210;2023-11-21T12:25:21;101711.09;;;6.09;100.00
68793;BME280;55778;54.346;10.210;2023-11-21T12:27:52;101708.00;;;6.15;100.00
68793;BME280;55778;54.346;10.210;2023-11-21T12:30:18;101707.16;;;6.29;100.00
68793;BME280;55778;54.346;10.210;2023-11-21T12:32:47;101713.69;;;6.25;100.00
68793;BME280;55778;54.346;10.210;2023-11-21T12:35:13;101712.75;;;6.26;100.00
68793;BME280;55778;54.346;10.210;2023-11-21T12:37:39;101713.22;;;6.18;100.00
68793;BME280;55778;54.346;10.210;2023-11-21T12:40:06;101719.09;;;6.25;100.00
68793;BME280;55778;54.346;10.210;2023-11-21T12:42:32;101719.09;;;6.10;100.00
68793;BME280;55778;54.346;10.210;2023-11-21T12:48:08;101724.63;;;6.09;100.00
68793;BME280;55778;54.346;10.210;2023-11-21T12:50:37;101728.78;;;6.14;100.00
68793;BME280;55778;54.346;10.210;2023-11-21T12:55:35;101726.34;;;6.10;100.00